Aérodrome :
LOGIN :

S'inscrire | Disclaimer

   EN    FR    IT 

 










Légende :    VFR   VFR Marginal   IFR   IFR Intensif   IFR Très Intensif
Visi : 
Plafond : 
>= 8 km
>= 3000ft
5 à 8 km
1000 à 3000 ft
1500m à 5 km
500 à 1000 ft
800 à 1500m
200 à 500 ft
< 800m
< 200 ft
Symboles :   Orages  Brouillard  Fortes neiges  Fortes précipitations  Vent > 20 kt
SIGMETs :   Divers  Orages  Givrage  Turbulence  Onde Orograph.  Cendres Volcan.







- Altitude de l'aérodrome : 194 ft


EBCV - Chièvres

DERNIER METAR :
  • 190325Z AUTO 22010KT 9999 NCD 12/09 Q1015 BLU

METARs EXPIRÉS :
  • 190255Z AUTO 21010KT 9999 FEW045/// 12/09 Q1015 BLU
  • 190225Z AUTO 21009KT 9999 SCT044/// 12/09 Q1015 BLU
  • 190155Z AUTO 21010KT 9999 NCD 12/09 Q1015 BLU
  • 190125Z AUTO 20009KT 9999 NCD 12/09 Q1015 BLU
  • 190055Z AUTO 20009KT 9999 NCD 12/09 Q1015 BLU

TAF TAF EBCV
Valide du 18 à 19h jusqu'au 19 à 07h UTC


181541Z 1819/1907 25010KT 9999 FEW025
BECMG 1822/1824 22010KT FEW020 SCT025
BECMG 1902/1904 FEW020 SCT025 BKN060
PROB30
TEMPO 1905/1907 8000 -SHRA SCT020 BKN024 BY EBWM
Pas de NOTAMs connus pour ce terrain.



MET'MAP, la Météo Aéronautique d'un coup d'oeil ! - Copyright ORBIFLY Décembre 2007 - Disclaimer

ORBIFLY MET'MAP TEAM :

Programmation & Développement : Alexandra Zaïnal
Conception & Développement : Baudouin d'Aumeries
Co-Programmation & Développement : Marc-Olivier Méhu
Soutien technique & logistique : Manuel Goepfert

Contact : metmap@orbifly.com




SOURCES & CREDITS :

   NOAA